Time;durP1;ratioP1;P1;durP2;ratioP2;P2;SDS_P1;SDS_P2;PMS_P1;PMS_P2;Temp;Humidity;BMP_temperature;BMP_pressure;BME280_temperature;BME280_humidity;BME280_pressure;Samples;Min_cycle;Max_cycle;Signal;HPM_P1;HPM_P2
2022/08/14 00:00:13;;;;;;;4.53;3.13;;;21.90;99.90;;;;;;4961008;28;20050;-74
2022/08/14 00:02:39;;;;;;;6.88;3.20;;;21.90;99.90;;;;;;4988760;28;20133;-74
2022/08/14 00:05:08;;;;;;;4.20;3.35;;;21.80;99.90;;;;;;4989690;28;20054;-74
2022/08/14 00:07:34;;;;;;;6.15;3.95;;;21.80;99.90;;;;;;4989819;28;20081;-74
2022/08/14 00:10:03;;;;;;;5.57;3.85;;;21.80;99.90;;;;;;4974775;28;20059;-74
2022/08/14 00:12:31;;;;;;;5.63;3.92;;;21.80;99.90;;;;;;4975039;28;20689;-74
2022/08/14 00:14:56;;;;;;;5.13;3.55;;;21.70;99.90;;;;;;4948808;28;21787;-74
2022/08/14 00:17:23;;;;;;;7.57;3.83;;;21.70;99.90;;;;;;4944732;28;20050;-74
2022/08/14 00:19:49;;;;;;;4.07;3.28;;;21.70;99.90;;;;;;4974975;28;20412;-74
2022/08/14 00:22:17;;;;;;;7.22;3.95;;;21.70;99.90;;;;;;4975059;28;20050;-73
2022/08/14 00:24:44;;;;;;;4.13;3.67;;;21.70;99.90;;;;;;4985374;28;20085;-74
2022/08/14 00:27:11;;;;;;;4.60;3.15;;;21.70;99.90;;;;;;4972463;28;20335;-72
2022/08/14 00:29:36;;;;;;;4.80;3.53;;;21.70;99.90;;;;;;4957721;28;20051;-74
2022/08/14 00:32:03;;;;;;;6.63;3.42;;;21.70;99.90;;;;;;4989814;28;20053;-74
2022/08/14 00:34:29;;;;;;;5.75;3.65;;;21.70;99.90;;;;;;4956111;28;20055;-74
2022/08/14 00:36:54;;;;;;;7.55;4.10;;;21.60;99.90;;;;;;4990111;28;20050;-73
2022/08/14 00:39:20;;;;;;;5.30;3.80;;;21.60;99.90;;;;;;4972937;28;20161;-73
2022/08/14 00:41:47;;;;;;;4.78;4.15;;;21.60;99.90;;;;;;4941419;28;20046;-72
2022/08/14 00:44:13;;;;;;;4.30;3.90;;;21.60;99.90;;;;;;4942870;28;20089;-73
2022/08/14 00:46:39;;;;;;;5.13;4.03;;;21.60;99.90;;;;;;4974501;28;20051;-73
2022/08/14 00:49:11;;;;;;;6.13;3.78;;;21.60;99.90;;;;;;4972023;28;20121;-73
2022/08/14 00:51:37;;;;;;;5.28;4.38;;;21.50;99.90;;;;;;4957743;28;20462;-74
2022/08/14 00:54:04;;;;;;;5.63;4.00;;;21.50;99.90;;;;;;4971765;28;20133;-74
2022/08/14 00:56:30;;;;;;;6.05;4.57;;;21.50;99.90;;;;;;4975388;28;20622;-73
2022/08/14 00:58:58;;;;;;;5.28;4.50;;;21.50;99.90;;;;;;4940272;28;20058;-74
2022/08/14 01:01:24;;;;;;;4.88;4.38;;;21.50;99.90;;;;;;4972292;28;20062;-73
2022/08/14 01:03:52;;;;;;;5.00;4.50;;;21.40;99.90;;;;;;5460469;23;20248;-74
2022/08/14 01:06:18;;;;;;;5.20;4.28;;;21.40;99.90;;;;;;4986420;28;20145;-74
2022/08/14 01:08:44;;;;;;;7.40;4.93;;;21.40;99.90;;;;;;5021245;28;20053;-74
2022/08/14 01:11:14;;;;;;;4.72;4.20;;;21.40;99.90;;;;;;5021728;28;20148;-74
2022/08/14 01:13:41;;;;;;;8.23;4.32;;;21.40;99.90;;;;;;5006354;28;20048;-74
2022/08/14 01:16:12;;;;;;;8.15;4.90;;;21.40;99.90;;;;;;5017944;28;20233;-74
2022/08/14 01:21:34;;;;;;;5.85;5.32;;;21.40;99.90;;;;;;5025004;28;20068;-74
2022/08/14 01:24:00;;;;;;;11.13;5.20;;;21.40;99.90;;;;;;5022199;28;20126;-74
2022/08/14 01:26:27;;;;;;;5.35;4.28;;;21.40;99.90;;;;;;5024437;28;20056;-74
2022/08/14 01:28:58;;;;;;;4.97;4.43;;;21.30;99.90;;;;;;5025775;28;20046;-74
2022/08/14 01:31:26;;;;;;;7.15;4.80;;;21.30;99.90;;;;;;5024800;28;20061;-74
2022/08/14 01:33:55;;;;;;;6.55;5.00;;;21.30;99.90;;;;;;5024946;28;20113;-75
2022/08/14 01:36:22;;;;;;;5.93;5.43;;;21.30;99.90;;;;;;5023084;28;20045;-74
2022/08/14 01:38:50;;;;;;;5.72;4.63;;;21.20;99.90;;;;;;5021212;28;20049;-74
2022/08/14 01:41:21;;;;;;;6.70;5.38;;;21.20;99.90;;;;;;5024701;28;20073;-74
2022/08/14 01:43:51;;;;;;;6.47;4.75;;;21.10;99.90;;;;;;5002844;28;20136;-73
2022/08/14 01:46:22;;;;;;;6.45;5.30;;;21.10;99.90;;;;;;5018332;28;20040;-74
2022/08/14 01:48:50;;;;;;;9.20;5.70;;;21.10;99.90;;;;;;5019209;28;20049;-74
2022/08/14 01:51:19;;;;;;;5.70;5.10;;;21.00;99.90;;;;;;5018941;28;20057;-74
2022/08/14 01:53:48;;;;;;;5.70;4.72;;;21.00;99.90;;;;;;5023966;28;20064;-75
2022/08/14 01:56:19;;;;;;;5.20;4.63;;;21.00;99.90;;;;;;5018380;28;20076;-74
2022/08/14 01:58:47;;;;;;;7.20;5.40;;;21.00;99.90;;;;;;5006299;28;20085;-74
2022/08/14 02:01:17;;;;;;;6.22;5.20;;;20.90;99.90;;;;;;5006194;28;20643;-74
2022/08/14 02:03:43;;;;;;;5.60;5.10;;;20.90;99.90;;;;;;4990144;28;20444;-74
2022/08/14 02:06:10;;;;;;;7.30;5.53;;;20.90;99.90;;;;;;5021735;28;20868;-74
2022/08/14 02:08:37;;;;;;;5.65;5.03;;;20.80;99.90;;;;;;5023529;28;20896;-74
2022/08/14 02:11:23;;;;;;;7.10;5.13;;;20.80;99.90;;;;;;5006498;28;20188;-74
2022/08/14 02:13:50;;;;;;;6.15;5.55;;;20.80;99.90;;;;;;5007293;28;20582;-74
2022/08/14 02:16:18;;;;;;;6.85;5.50;;;20.80;99.90;;;;;;5023558;28;20111;-74
2022/08/14 02:18:45;;;;;;;5.80;5.30;;;20.80;99.90;;;;;;5023280;28;20041;-74
2022/08/14 02:21:17;;;;;;;7.25;5.28;;;20.70;99.90;;;;;;5023764;28;20050;-73
2022/08/14 02:23:44;;;;;;;5.80;5.20;;;20.70;99.90;;;;;;5023670;28;20111;-74
2022/08/14 02:26:19;;;;;;;6.25;5.47;;;20.70;99.90;;;;;;5022291;28;20053;-74
2022/08/14 02:28:45;;;;;;;7.30;5.38;;;20.70;99.90;;;;;;5022905;28;20376;-75
2022/08/14 02:31:12;;;;;;;8.93;5.53;;;20.60;99.90;;;;;;5005795;28;20446;-74
2022/08/14 02:33:40;;;;;;;6.57;5.88;;;20.60;99.90;;;;;;5006378;28;20049;-75
2022/08/14 02:36:07;;;;;;;5.47;4.95;;;20.60;99.90;;;;;;4989842;28;20053;-75
2022/08/14 02:38:33;;;;;;;7.75;5.05;;;20.60;99.90;;;;;;5017480;28;20044;-74
2022/08/14 02:40:59;;;;;;;7.60;6.00;;;20.60;99.90;;;;;;5023861;28;20491;-75
2022/08/14 02:43:29;;;;;;;6.57;5.53;;;20.50;99.90;;;;;;5017499;28;20765;-74
2022/08/14 02:45:55;;;;;;;6.43;5.50;;;20.50;99.90;;;;;;5004245;28;20430;-74
2022/08/14 02:48:21;;;;;;;7.70;5.22;;;20.50;99.90;;;;;;5004624;28;20562;-74
2022/08/14 02:50:48;;;;;;;6.57;5.35;;;20.40;99.90;;;;;;5022184;28;20128;-74
2022/08/14 02:53:14;;;;;;;8.50;5.90;;;20.40;99.90;;;;;;5020212;28;20049;-74
2022/08/14 02:55:42;;;;;;;6.57;5.85;;;20.40;99.90;;;;;;5023150;28;20059;-74
2022/08/14 02:58:08;;;;;;;5.88;5.28;;;20.40;99.90;;;;;;5004994;28;20038;-74
2022/08/14 03:00:34;;;;;;;7.68;5.65;;;20.40;99.90;;;;;;5017812;28;20056;-74
2022/08/14 03:03:02;;;;;;;9.13;6.18;;;20.40;99.90;;;;;;5022372;28;20577;-75
2022/08/14 03:05:29;;;;;;;7.28;5.65;;;20.30;99.90;;;;;;5021596;28;20128;-74
2022/08/14 03:08:04;;;;;;;7.50;5.40;;;20.30;99.90;;;;;;5006800;28;20611;-74
2022/08/14 03:10:31;;;;;;;6.65;6.05;;;20.30;99.90;;;;;;5022392;28;20079;-74
2022/08/14 03:12:57;;;;;;;6.25;5.65;;;20.30;99.90;;;;;;5006842;28;20049;-74
2022/08/14 03:15:23;;;;;;;7.13;6.43;;;20.30;99.90;;;;;;5021703;28;20253;-74
2022/08/14 03:17:51;;;;;;;9.60;6.25;;;20.30;99.90;;;;;;5005406;28;20137;-74
2022/08/14 03:20:18;;;;;;;7.15;5.65;;;20.20;99.90;;;;;;5022900;28;20053;-74
2022/08/14 03:22:43;;;;;;;6.30;5.70;;;20.20;99.90;;;;;;5020106;28;20049;-73
2022/08/14 03:25:11;;;;;;;8.93;5.88;;;20.20;99.90;;;;;;5021383;28;20042;-74
2022/08/14 03:27:37;;;;;;;6.78;5.93;;;20.10;99.90;;;;;;5004709;28;20046;-74
2022/08/14 03:30:04;;;;;;;7.50;6.13;;;20.10;99.90;;;;;;5022733;28;20044;-74
2022/08/14 03:32:32;;;;;;;7.13;6.43;;;20.10;99.90;;;;;;5021729;28;20049;-74
2022/08/14 03:34:58;;;;;;;6.15;5.45;;;20.10;99.90;;;;;;5022313;28;20041;-74
2022/08/14 03:37:25;;;;;;;6.88;6.28;;;20.10;99.90;;;;;;5021396;28;20049;-74
2022/08/14 03:39:54;;;;;;;6.55;5.93;;;20.10;99.90;;;;;;5022200;28;20060;-73
2022/08/14 03:42:22;;;;;;;7.40;6.57;;;20.00;99.90;;;;;;5015324;28;20077;-74
2022/08/14 03:44:48;;;;;;;7.45;6.72;;;20.00;99.90;;;;;;5016957;28;20045;-74
2022/08/14 03:47:14;;;;;;;8.15;7.00;;;20.00;99.90;;;;;;5021406;28;20262;-74
2022/08/14 03:49:41;;;;;;;7.80;6.38;;;20.00;99.90;;;;;;5023526;28;20145;-74
2022/08/14 03:52:07;;;;;;;7.70;6.40;;;20.00;99.90;;;;;;5016588;28;20080;-75
2022/08/14 03:54:34;;;;;;;7.78;6.95;;;20.00;99.90;;;;;;5005608;28;20060;-74
2022/08/14 03:57:01;;;;;;;7.13;6.43;;;19.90;99.90;;;;;;5019709;28;20053;-74
2022/08/14 03:59:26;;;;;;;7.38;6.68;;;19.90;99.90;;;;;;5006002;28;20804;-74
2022/08/14 04:01:52;;;;;;;9.05;6.95;;;19.90;99.90;;;;;;5005629;28;20052;-74
2022/08/14 04:04:18;;;;;;;7.85;6.97;;;19.90;99.90;;;;;;4992209;28;20420;-74
2022/08/14 04:06:44;;;;;;;11.00;6.70;;;19.90;99.90;;;;;;5009967;28;20040;-74
2022/08/14 04:09:10;;;;;;;7.88;7.07;;;19.90;99.90;;;;;;5025674;28;20479;-74
2022/08/14 04:11:36;;;;;;;10.60;7.63;;;19.90;99.90;;;;;;5005424;28;20049;-74
2022/08/14 04:14:04;;;;;;;7.85;7.05;;;19.80;99.90;;;;;;5023789;28;20065;-74
2022/08/14 04:16:30;;;;;;;7.45;6.32;;;19.80;99.90;;;;;;5004015;28;20049;-74
2022/08/14 04:18:57;;;;;;;7.53;6.50;;;19.80;99.90;;;;;;5024944;28;20533;-74
2022/08/14 04:21:26;;;;;;;8.30;6.55;;;19.80;99.90;;;;;;5019897;28;20048;-74
2022/08/14 04:23:54;;;;;;;9.80;6.90;;;19.80;99.90;;;;;;5023815;28;20141;-74
2022/08/14 04:26:21;;;;;;;8.02;6.40;;;19.80;99.90;;;;;;5020665;28;20060;-74
2022/08/14 04:28:49;;;;;;;8.60;7.47;;;19.80;99.90;;;;;;5025272;28;20176;-74
2022/08/14 04:31:17;;;;;;;8.88;7.20;;;19.80;99.90;;;;;;5022813;28;20483;-74
2022/08/14 04:33:43;;;;;;;8.60;7.80;;;19.80;99.90;;;;;;5007226;28;20487;-75
2022/08/14 04:36:08;;;;;;;8.20;7.40;;;19.80;99.90;;;;;;5024921;28;20183;-75
2022/08/14 04:44:04;;;;;;;10.20;7.65;;;19.70;99.90;;;;;;5024063;28;20056;-74
2022/08/14 04:46:33;;;;;;;8.63;7.78;;;19.70;99.90;;;;;;5026247;28;20042;-75
2022/08/14 04:48:59;;;;;;;8.80;7.90;;;19.70;99.90;;;;;;5023386;28;20049;-75
2022/08/14 04:51:26;;;;;;;10.45;7.90;;;19.70;99.90;;;;;;5026330;28;20423;-75
2022/08/14 04:53:53;;;;;;;9.15;8.25;;;19.70;99.90;;;;;;5025267;28;20048;-74
2022/08/14 04:56:24;;;;;;;10.13;7.63;;;19.70;99.90;;;;;;5007375;28;20079;-74
2022/08/14 04:58:56;;;;;;;8.27;7.47;;;19.70;99.90;;;;;;5023527;28;20539;-74
2022/08/14 05:01:24;;;;;;;8.85;7.97;;;19.70;99.90;;;;;;5024163;28;20077;-74
2022/08/14 05:03:50;;;;;;;7.85;7.15;;;19.60;99.90;;;;;;5023853;28;20048;-75
2022/08/14 05:06:15;;;;;;;10.45;8.38;;;19.60;99.90;;;;;;5025532;28;20057;-75
2022/08/14 05:08:42;;;;;;;9.55;8.65;;;19.60;99.90;;;;;;5008847;28;20151;-75
2022/08/14 05:11:09;;;;;;;8.80;7.90;;;19.60;99.90;;;;;;5021903;28;20049;-75
2022/08/14 05:13:36;;;;;;;9.23;7.90;;;19.70;99.90;;;;;;5008323;28;20120;-75
2022/08/14 05:16:04;;;;;;;8.45;7.55;;;19.60;99.90;;;;;;5004035;28;20049;-75
2022/08/14 05:18:37;;;;;;;10.93;8.35;;;19.70;99.90;;;;;;5022999;28;20045;-75
2022/08/14 05:21:08;;;;;;;8.30;7.47;;;19.70;99.90;;;;;;5024066;28;20049;-75
2022/08/14 05:23:38;;;;;;;8.50;7.70;;;19.60;99.90;;;;;;5018263;28;20049;-76
2022/08/14 05:26:12;;;;;;;9.93;8.43;;;19.80;99.90;;;;;;5007008;28;20056;-76
2022/08/14 05:28:43;;;;;;;10.10;8.52;;;19.80;99.90;;;;;;5024102;28;20053;-78
2022/08/14 05:31:10;;;;;;;9.93;8.05;;;19.80;99.90;;;;;;5018171;28;20402;-81
2022/08/14 05:33:36;;;;;;;8.30;7.55;;;19.90;99.90;;;;;;5007197;28;20045;-81
2022/08/14 05:36:08;;;;;;;8.63;7.82;;;19.90;99.90;;;;;;5007647;28;20552;-80
2022/08/14 05:38:39;;;;;;;9.00;7.82;;;20.00;99.90;;;;;;5004162;28;20043;-81
2022/08/14 05:41:08;;;;;;;7.97;7.18;;;20.00;99.90;;;;;;5007202;28;20566;-79
2022/08/14 05:43:34;;;;;;;8.45;7.65;;;20.00;99.90;;;;;;5001470;28;20041;-78
2022/08/14 05:46:00;;;;;;;8.57;7.47;;;20.10;99.90;;;;;;5024155;28;20111;-80
2022/08/14 05:48:27;;;;;;;8.55;7.35;;;20.10;99.90;;;;;;5007103;28;20111;-79
2022/08/14 05:50:54;;;;;;;10.52;8.45;;;20.10;99.90;;;;;;5023676;28;20924;-79
2022/08/14 05:53:21;;;;;;;8.60;7.60;;;20.20;99.90;;;;;;5003850;28;20045;-80
2022/08/14 05:55:48;;;;;;;7.95;7.25;;;20.20;99.90;;;;;;5011407;28;20060;-79
2022/08/14 05:58:13;;;;;;;8.40;7.57;;;20.20;99.90;;;;;;4990657;28;20050;-80
2022/08/14 06:00:41;;;;;;;8.23;7.10;;;20.30;99.90;;;;;;5011020;28;20041;-80
2022/08/14 06:03:11;;;;;;;8.98;8.07;;;20.30;99.90;;;;;;5010060;28;20057;-80
2022/08/14 06:05:37;;;;;;;8.48;7.63;;;20.50;99.90;;;;;;5028021;28;20057;-81
2022/08/14 06:08:03;;;;;;;9.43;6.50;;;20.50;99.90;;;;;;5013070;28;20041;-80
2022/08/14 06:10:30;;;;;;;7.90;7.07;;;20.50;99.90;;;;;;5005678;28;20053;-80
2022/08/14 06:12:57;;;;;;;8.60;6.82;;;20.50;99.90;;;;;;5012211;28;20046;-80
2022/08/14 06:15:24;;;;;;;7.35;6.60;;;20.70;99.90;;;;;;5022188;28;20046;-80
2022/08/14 06:17:52;;;;;;;8.02;7.20;;;20.80;99.90;;;;;;5003700;28;20529;-80
2022/08/14 06:20:19;;;;;;;7.68;6.97;;;20.80;99.90;;;;;;5020050;28;20053;-80
2022/08/14 06:22:45;;;;;;;7.97;7.18;;;20.90;99.90;;;;;;5015659;28;20068;-81
2022/08/14 06:25:13;;;;;;;8.75;7.95;;;21.00;99.90;;;;;;4991541;28;20475;-80
2022/08/14 06:27:41;;;;;;;10.25;8.35;;;21.10;99.90;;;;;;5003108;28;20144;-80
2022/08/14 06:30:09;;;;;;;7.95;6.95;;;21.30;99.90;;;;;;5023751;28;20510;-80
2022/08/14 06:32:36;;;;;;;8.02;7.20;;;21.30;99.90;;;;;;5016524;28;20048;-81
2022/08/14 06:35:05;;;;;;;10.30;7.88;;;21.40;99.90;;;;;;5018811;28;20048;-80
2022/08/14 06:37:53;;;;;;;8.07;7.35;;;21.50;99.90;;;;;;4987458;28;20057;-78
2022/08/14 06:40:28;;;;;;;9.75;8.52;;;21.70;99.90;;;;;;5006294;28;20053;-81
2022/08/14 06:43:13;;;;;;;9.05;7.38;;;21.80;99.90;;;;;;5000414;28;20045;-80
2022/08/14 06:45:40;;;;;;;8.55;7.68;;;21.90;99.90;;;;;;4988462;28;20056;-80
2022/08/14 06:48:18;;;;;;;7.97;7.18;;;22.10;99.90;;;;;;5007091;28;20530;-79
2022/08/14 06:50:46;;;;;;;7.90;6.82;;;22.20;99.90;;;;;;4998239;28;20136;-77
2022/08/14 06:53:13;;;;;;;7.70;7.00;;;22.30;99.90;;;;;;5004658;28;20561;-76
2022/08/14 06:55:44;;;;;;;8.05;7.13;;;22.40;99.90;;;;;;5022133;28;20144;-76
2022/08/14 06:58:12;;;;;;;9.88;6.68;;;22.60;99.90;;;;;;5027049;28;20495;-76
2022/08/14 07:05:44;;;;;;;7.15;6.45;;;22.70;99.90;;;;;;5027792;28;20099;-77
2022/08/14 07:06:17;;;;;;;7.30;6.45;;;23.00;99.90;;;;;;5026575;28;20435;-77
2022/08/14 07:08:43;;;;;;;7.13;6.43;;;23.10;99.90;;;;;;5026084;28;20045;-77
2022/08/14 07:11:09;;;;;;;7.20;6.35;;;23.20;99.90;;;;;;5011079;28;20069;-77
2022/08/14 07:13:36;;;;;;;6.18;5.60;;;23.40;99.90;;;;;;5010654;28;20053;-77
2022/08/14 07:16:02;;;;;;;6.68;6.07;;;23.50;99.90;;;;;;5009712;28;20048;-76
2022/08/14 07:18:33;;;;;;;8.52;6.38;;;23.60;99.90;;;;;;5009098;28;20134;-76
2022/08/14 07:21:00;;;;;;;6.95;6.25;;;23.80;99.90;;;;;;5020685;28;20038;-77
2022/08/14 07:23:26;;;;;;;6.85;6.15;;;23.90;99.90;;;;;;5018128;28;20054;-78
2022/08/14 07:25:57;;;;;;;7.05;6.45;;;24.10;99.90;;;;;;5027125;28;20049;-78
2022/08/14 07:28:30;;;;;;;9.95;6.22;;;24.30;99.90;;;;;;5008585;28;20057;-78
2022/08/14 07:30:57;;;;;;;6.40;5.60;;;24.40;99.90;;;;;;5018820;28;20056;-78
2022/08/14 07:33:35;;;;;;;6.32;5.72;;;24.60;99.90;;;;;;5026154;28;20057;-78
2022/08/14 07:36:04;;;;;;;7.18;6.47;;;24.70;99.90;;;;;;5029933;28;20050;-77
2022/08/14 07:38:29;;;;;;;7.93;6.53;;;24.90;99.90;;;;;;5010502;28;20046;-78
2022/08/14 07:40:57;;;;;;;6.53;5.93;;;25.10;99.90;;;;;;5013686;28;20068;-78
2022/08/14 07:43:23;;;;;;;6.38;5.50;;;25.20;99.90;;;;;;5029452;28;20053;-81
2022/08/14 07:45:49;;;;;;;6.75;5.63;;;25.50;99.90;;;;;;4993250;28;20371;-82
2022/08/14 07:48:14;;;;;;;5.95;5.35;;;25.70;99.90;;;;;;4996299;28;20045;-81
2022/08/14 07:50:41;;;;;;;8.20;5.40;;;25.80;99.90;;;;;;5013286;28;20053;-82
2022/08/14 07:53:06;;;;;;;7.72;5.43;;;26.00;99.90;;;;;;5013794;28;20059;-82
2022/08/14 07:55:32;;;;;;;6.32;5.07;;;26.20;99.90;;;;;;4997431;28;20049;-80
2022/08/14 07:57:58;;;;;;;7.13;5.15;;;26.30;99.90;;;;;;5010707;28;20045;-80
2022/08/14 08:00:25;;;;;;;5.25;4.75;;;26.50;99.90;;;;;;5010912;28;20104;-82
2022/08/14 08:02:53;;;;;;;5.50;4.70;;;26.70;99.90;;;;;;5006401;28;20045;-79
2022/08/14 08:05:23;;;;;;;6.03;4.90;;;26.90;99.90;;;;;;5020849;28;20403;-79
2022/08/14 08:07:50;;;;;;;5.20;4.43;;;27.10;99.90;;;;;;5029116;28;20045;-77
2022/08/14 08:10:32;;;;;;;4.90;4.40;;;27.30;99.90;;;;;;5011822;28;20053;-76
2022/08/14 08:13:03;;;;;;;5.78;4.38;;;27.50;99.90;;;;;;5030309;28;20096;-76
2022/08/14 08:15:32;;;;;;;5.18;4.70;;;27.70;99.90;;;;;;5029929;28;20041;-76
2022/08/14 08:18:03;;;;;;;5.75;4.70;;;27.90;99.90;;;;;;5022269;28;20046;-76
2022/08/14 08:20:31;;;;;;;5.13;4.55;;;27.90;99.90;;;;;;5028840;28;20049;-75
2022/08/14 08:22:58;;;;;;;5.82;4.93;;;28.00;99.90;;;;;;5030466;28;20136;-75
2022/08/14 08:25:30;;;;;;;5.28;4.45;;;28.20;99.90;;;;;;5022525;28;20184;-75
2022/08/14 08:27:57;;;;;;;5.95;4.35;;;28.40;99.90;;;;;;5029915;28;20513;-75
2022/08/14 08:30:23;;;;;;;6.82;4.68;;;28.50;99.90;;;;;;5022054;28;20038;-74
2022/08/14 08:32:51;;;;;;;8.40;5.05;;;28.60;99.90;;;;;;5029064;28;20570;-75
2022/08/14 08:35:19;;;;;;;6.88;4.50;;;28.60;99.70;;;;;;5031050;28;20053;-75
2022/08/14 08:37:47;;;;;;;5.28;4.32;;;28.60;99.70;;;;;;5011276;28;20112;-76
2022/08/14 08:40:36;;;;;;;6.53;4.68;;;28.70;99.50;;;;;;5028836;28;20045;-76
2022/08/14 08:43:07;;;;;;;7.75;4.50;;;28.90;98.60;;;;;;5005992;28;20049;-75
2022/08/14 08:45:35;;;;;;;4.55;4.15;;;29.00;99.00;;;;;;5028638;28;20053;-75
2022/08/14 08:48:02;;;;;;;4.60;4.07;;;29.10;98.80;;;;;;5031134;28;20122;-75
2022/08/14 08:50:35;;;;;;;7.18;4.20;;;29.40;98.90;;;;;;5029151;28;20099;-74
2022/08/14 08:53:07;;;;;;;5.10;4.15;;;29.50;98.40;;;;;;5029239;28;20057;-74
2022/08/14 08:55:42;;;;;;;5.38;3.92;;;29.70;98.20;;;;;;5028867;28;20057;-74
2022/08/14 08:58:16;;;;;;;4.43;4.03;;;29.70;97.30;;;;;;5028003;28;20048;-74
2022/08/14 09:00:47;;;;;;;4.77;3.93;;;29.80;97.60;;;;;;5021032;28;20554;-74
2022/08/14 09:03:16;;;;;;;6.60;4.40;;;30.00;97.60;;;;;;5030007;28;20103;-74
2022/08/14 09:05:50;;;;;;;5.70;4.10;;;30.30;97.10;;;;;;5044407;28;20061;-74
2022/08/14 09:08:18;;;;;;;4.63;3.40;;;30.60;96.60;;;;;;5028350;28;20054;-75
2022/08/14 09:10:44;;;;;;;4.28;3.75;;;31.00;96.30;;;;;;5028718;28;20126;-75
2022/08/14 09:13:11;;;;;;;5.90;4.20;;;31.30;95.70;;;;;;5026041;28;20517;-75
2022/08/14 09:15:43;;;;;;;4.05;3.42;;;31.60;94.90;;;;;;5028595;28;20053;-76
2022/08/14 09:18:10;;;;;;;4.35;3.50;;;31.80;94.00;;;;;;5028818;28;20118;-75
2022/08/14 09:20:41;;;;;;;4.75;3.45;;;31.90;93.90;;;;;;5020850;28;20049;-74
2022/08/14 09:23:11;;;;;;;4.03;3.55;;;32.10;92.80;;;;;;5011806;28;20076;-75
2022/08/14 09:25:40;;;;;;;4.68;3.78;;;32.30;92.40;;;;;;5028305;28;20092;-76
2022/08/14 09:28:07;;;;;;;4.05;3.60;;;32.40;92.00;;;;;;5029430;28;20053;-75
2022/08/14 09:30:36;;;;;;;4.15;3.22;;;32.40;91.50;;;;;;5020706;28;20045;-75
2022/08/14 09:33:02;;;;;;;5.80;3.50;;;32.60;91.10;;;;;;5027512;28;20052;-75
2022/08/14 09:35:45;;;;;;;4.53;3.53;;;32.70;90.60;;;;;;5028026;28;20049;-76
2022/08/14 09:38:27;;;;;;;3.53;3.22;;;32.60;89.80;;;;;;5030126;28;20046;-75
2022/08/14 09:41:23;;;;;;;3.88;3.55;;;32.60;88.70;;;;;;5020518;28;20085;-76
2022/08/14 09:44:02;;;;;;;3.58;3.25;;;32.60;88.10;;;;;;5042911;28;20490;-75
2022/08/14 09:46:28;;;;;;;4.63;3.50;;;32.70;87.50;;;;;;5020251;28;20102;-75
2022/08/14 09:48:58;;;;;;;4.85;3.20;;;32.90;88.80;;;;;;5026512;28;20318;-75
2022/08/14 09:51:27;;;;;;;4.55;3.40;;;33.00;87.60;;;;;;5021970;28;20068;-75
2022/08/14 09:54:11;;;;;;;5.85;3.10;;;33.20;87.10;;;;;;5020204;28;20132;-75
2022/08/14 09:56:49;;;;;;;3.63;3.08;;;33.50;86.50;;;;;;5027806;28;20054;-75
2022/08/14 09:59:21;;;;;;;3.97;3.30;;;33.80;85.60;;;;;;5045064;28;20049;-75
2022/08/14 10:01:48;;;;;;;4.10;3.20;;;34.10;83.50;;;;;;5028167;28;20054;-75
2022/08/14 10:04:27;;;;;;;3.90;3.50;;;34.20;82.60;;;;;;5027151;28;20111;-75
2022/08/14 10:06:53;;;;;;;5.50;3.28;;;34.10;79.50;;;;;;5044470;28;20464;-75
2022/08/14 10:09:19;;;;;;;3.75;3.35;;;34.00;80.10;;;;;;5027173;28;20079;-75
2022/08/14 10:11:57;;;;;;;3.58;3.13;;;34.10;79.50;;;;;;5026969;28;20085;-76
2022/08/14 10:14:27;;;;;;;3.55;3.25;;;34.30;78.00;;;;;;5026995;28;20080;-75
2022/08/14 10:16:57;;;;;;;3.67;3.38;;;34.30;78.40;;;;;;5027624;28;20380;-76
2022/08/14 10:19:29;;;;;;;3.75;3.17;;;34.20;77.40;;;;;;5028221;28;20513;-76
2022/08/14 10:22:01;;;;;;;4.07;3.35;;;34.20;77.40;;;;;;5025834;28;20520;-76
2022/08/14 10:24:28;;;;;;;3.75;3.25;;;34.10;75.00;;;;;;5020298;28;20075;-75
2022/08/14 10:26:55;;;;;;;3.70;3.22;;;34.30;75.50;;;;;;5027027;28;20103;-74
2022/08/14 10:29:34;;;;;;;4.57;2.80;;;34.50;74.50;;;;;;5026632;28;20406;-74
2022/08/14 10:32:00;;;;;;;4.60;3.30;;;34.70;73.20;;;;;;5027180;28;20057;-74
2022/08/14 10:34:34;;;;;;;3.38;3.05;;;34.80;73.40;;;;;;5011305;28;20565;-74
2022/08/14 10:37:06;;;;;;;4.47;3.23;;;34.70;71.00;;;;;;5019869;28;20050;-75
2022/08/14 10:39:35;;;;;;;3.40;3.10;;;34.80;72.60;;;;;;5020080;28;20046;-76
2022/08/14 10:42:11;;;;;;;5.20;3.03;;;34.80;71.50;;;;;;5027041;28;20145;-76
2022/08/14 10:44:46;;;;;;;4.68;3.17;;;35.00;71.30;;;;;;5020407;28;20041;-77
2022/08/14 10:47:13;;;;;;;3.33;3.03;;;35.10;71.20;;;;;;5010705;28;20520;-76
2022/08/14 10:49:48;;;;;;;4.97;3.35;;;35.20;71.10;;;;;;5020234;28;20049;-75
2022/08/14 10:52:31;;;;;;;3.85;3.15;;;35.30;70.80;;;;;;5026996;28;20506;-75
2022/08/14 10:55:14;;;;;;;4.88;3.25;;;35.50;68.50;;;;;;5028442;28;20053;-79
2022/08/14 10:57:51;;;;;;;3.47;2.83;;;35.80;69.40;;;;;;5024650;28;20045;-79
2022/08/14 11:00:25;;;;;;;4.85;3.20;;;36.20;69.30;;;;;;5026019;28;20057;-79
2022/08/14 11:03:24;;;;;;;3.77;3.27;;;36.60;69.30;;;;;;5010354;28;20053;-79
2022/08/14 11:05:51;;;;;;;5.80;3.00;;;36.90;66.70;;;;;;5036245;28;20045;-78
2022/08/14 11:08:30;;;;;;;5.10;3.75;;;37.00;66.50;;;;;;4993587;28;20049;-76
2022/08/14 11:10:59;;;;;;;4.78;3.20;;;37.10;65.50;;;;;;5027910;28;20143;-75
2022/08/14 11:13:27;;;;;;;3.40;3.10;;;37.00;65.10;;;;;;5028123;28;20065;-79
2022/08/14 11:15:55;;;;;;;3.88;3.20;;;37.10;64.70;;;;;;5003211;28;20387;-79
2022/08/14 11:18:21;;;;;;;3.67;3.20;;;37.30;64.10;;;;;;5023053;28;20045;-79
2022/08/14 11:20:55;;;;;;;3.35;2.90;;;37.60;64.80;;;;;;5027409;28;20049;-79
2022/08/14 11:23:37;;;;;;;4.17;3.30;;;37.80;63.20;;;;;;5027667;28;20143;-79
2022/08/14 11:26:05;;;;;;;4.25;3.20;;;37.70;61.90;;;;;;5019710;28;20316;-79
2022/08/14 11:28:38;;;;;;;4.30;3.22;;;37.60;62.00;;;;;;5009393;28;20064;-79
2022/08/14 11:31:07;;;;;;;4.85;3.08;;;37.60;61.40;;;;;;5010935;28;20049;-79
2022/08/14 11:33:35;;;;;;;5.55;3.20;;;37.70;61.20;;;;;;5020935;28;20049;-77
2022/08/14 11:36:04;;;;;;;5.65;3.20;;;37.70;61.10;;;;;;5010936;28;20092;-78
2022/08/14 11:38:39;;;;;;;3.22;2.90;;;37.80;61.20;;;;;;5026934;28;20049;-80
2022/08/14 11:41:06;;;;;;;;;;;38.00;60.50;;;;;;5009974;28;20122;-79
2022/08/14 11:43:37;;;;;;;5.20;3.30;;;37.90;59.10;;;;;;4994277;28;19933;-79
2022/08/14 11:46:03;;;;;;;3.20;2.90;;;37.90;60.80;;;;;;5008491;28;20108;-79
2022/08/14 11:48:28;;;;;;;5.05;3.00;;;37.90;60.40;;;;;;5025923;28;20103;-79
2022/08/14 11:50:55;;;;;;;3.22;2.80;;;38.10;60.80;;;;;;4992858;28;20045;-80
2022/08/14 11:53:29;;;;;;;4.22;3.35;;;38.30;60.40;;;;;;4993144;28;20049;-78
2022/08/14 11:56:01;;;;;;;4.27;3.20;;;38.40;60.50;;;;;;5024748;28;20538;-74
2022/08/14 11:58:30;;;;;;;4.22;3.30;;;38.60;59.90;;;;;;5028301;28;20812;-74
2022/08/14 12:01:02;;;;;;;3.75;2.95;;;38.70;60.10;;;;;;5026325;28;20411;-75
2022/08/14 12:03:38;;;;;;;3.28;2.90;;;38.80;59.70;;;;;;5004960;28;20053;-76
2022/08/14 12:06:06;;;;;;;3.63;3.10;;;38.80;58.90;;;;;;5019147;28;20253;-75
2022/08/14 12:08:34;;;;;;;3.47;2.92;;;38.90;59.20;;;;;;5021829;28;20046;-81
2022/08/14 12:11:00;;;;;;;4.03;3.50;;;38.90;59.20;;;;;;5019912;28;20128;-80
2022/08/14 12:13:31;;;;;;;3.67;2.90;;;39.00;59.10;;;;;;4993516;28;20137;-76
2022/08/14 12:16:03;;;;;;;3.28;2.97;;;38.80;58.30;;;;;;5025579;28;20057;-77
2022/08/14 12:18:33;;;;;;;5.00;3.13;;;38.80;58.60;;;;;;5026742;28;20399;-79
2022/08/14 12:21:13;;;;;;;4.55;3.10;;;38.90;58.60;;;;;;5011103;28;20061;-77
2022/08/14 12:23:39;;;;;;;5.47;3.17;;;38.90;58.00;;;;;;5014058;28;20049;-77
2022/08/14 12:26:07;;;;;;;3.42;2.88;;;38.90;58.60;;;;;;5029966;28;20111;-74
2022/08/14 12:28:33;;;;;;;3.85;3.00;;;39.00;57.60;;;;;;5031164;28;20045;-78
2022/08/14 12:30:59;;;;;;;3.40;3.10;;;38.80;57.20;;;;;;5027262;28;20053;-76
2022/08/14 12:33:29;;;;;;;4.85;3.40;;;38.90;57.30;;;;;;5013203;28;20053;-75
2022/08/14 12:35:57;;;;;;;4.85;2.90;;;38.90;56.90;;;;;;5029626;28;20517;-75
2022/08/14 12:38:36;;;;;;;3.30;3.00;;;38.90;56.70;;;;;;5013843;28;20517;-75
2022/08/14 12:41:08;;;;;;;4.70;3.30;;;38.90;57.50;;;;;;5018712;28;20059;-76
2022/08/14 12:43:47;;;;;;;3.50;3.05;;;38.80;56.90;;;;;;5006272;28;20076;-77
2022/08/14 12:46:32;;;;;;;3.92;3.20;;;38.80;57.00;;;;;;5009034;28;20046;-75
2022/08/14 12:49:05;;;;;;;3.22;2.92;;;38.90;57.30;;;;;;5028049;28;20498;-75
2022/08/14 12:51:32;;;;;;;4.93;3.00;;;39.00;57.50;;;;;;5003984;28;20495;-76
2022/08/14 12:53:59;;;;;;;3.45;3.10;;;39.30;56.90;;;;;;5028653;28;20053;-75
2022/08/14 12:56:24;;;;;;;4.38;3.20;;;39.50;56.20;;;;;;5030027;28;20065;-75
2022/08/14 12:58:54;;;;;;;3.22;2.92;;;39.50;55.80;;;;;;5012031;28;20398;-76
2022/08/14 13:01:22;;;;;;;3.55;3.15;;;39.50;55.20;;;;;;5030047;28;20498;-79
2022/08/14 13:03:49;;;;;;;3.65;2.90;;;39.60;54.70;;;;;;5020977;28;20061;-76
2022/08/14 13:06:16;;;;;;;4.22;3.40;;;39.50;54.70;;;;;;5030961;28;20049;-75